This is the latest recevied weather packets stored in our database for station/object M7PDA-1. If no packets are shown the sender has not sent any weather packets the latest 10 day(s).
| Time | Temp. | Humidity | Pressure | Rain* | Wind** | Luminosity | Snow |
|---|---|---|---|---|---|---|---|
| 1778101883 | 8.33° C | 69% | 1016.9 hPa | - | - | - | - |
| 1778100982 | 8.33° C | 69% | 1017 hPa | - | - | - | - |
| 1778100082 | 8.33° C | 68% | 1016.9 hPa | - | - | - | - |
| 1778099181 | 8.33° C | 67% | 1016.8 hPa | - | - | - | - |
| 1778098280 | 8.89° C | 65% | 1016.7 hPa | - | - | - | - |
| 1778097379 | 8.89° C | 63% | 1016.6 hPa | - | - | - | - |
| 1778096478 | 9.44° C | 61% | 1016.6 hPa | - | - | - | - |
| 1778095578 | 9.44° C | 59% | 1016.4 hPa | - | - | - | - |
| 1778094677 | 10° C | 57% | 1016.3 hPa | - | - | - | - |
| 1778093776 | 10.56° C | 54% | 1016.3 hPa | - | - | - | - |
| 1778092875 | 11.11° C | 51% | 1016.2 hPa | - | - | - | - |
| 1778091975 | 11.67° C | 50% | 1016.1 hPa | - | - | - | - |
| 1778091074 | 11.67° C | 50% | 1016 hPa | - | - | - | - |
| 1778090173 | 11.67° C | 50% | 1016 hPa | - | - | - | - |
| 1778089272 | 12.78° C | 46% | 1016 hPa | - | - | - | - |
| 1778088371 | 12.78° C | 45% | 1016 hPa | - | - | - | - |
| 1778087471 | 13.33° C | 43% | 1015.9 hPa | - | - | - | - |
| 1778086570 | 14.44° C | 39% | 1015.9 hPa | - | - | - | - |
| 1778085669 | 13.89° C | 41% | 1016 hPa | - | - | - | - |
| 1778084768 | 13.89° C | 41% | 1016.1 hPa | - | - | - | - |
| 1778083868 | 16.11° C | 38% | 1016 hPa | - | - | - | - |
| 1778082967 | 15° C | 38% | 1016 hPa | - | - | - | - |
| 1778082066 | 15° C | 38% | 1016 hPa | - | - | - | - |
| 1778081165 | 14.44° C | 42% | 1016.2 hPa | - | - | - | - |
| 1778080265 | 13.33° C | 43% | 1016.3 hPa | - | - | - | - |
* Rain since midnight (hover to see other rain measurements)
** Current wind speed in m/s (hover to see current wind gust speed)